Terminal Aerodrome Forecast
Issued by NWS Paducah, KY

Home | Current Version | Previous Version | Text Only | Print | Product List | Glossary On
Versions: 1 2 3 4 5 6 7 8 9 10 11 12
504
FTUS43 KPAH 040520
TAFEVV
TAF
KEVV 040520Z 0406/0506 29007KT P6SM SCT025 BKN040
      TEMPO 0406/0408 SCT040
     FM041500 30010KT P6SM SKC
     FM050000 VRB03KT P6SM SKC=

USA.gov is the U.S. government's official web portal to all federal, state and local government web resources and services.